createdAt,value
2023-12-23T00:02:23.917Z,25.75
2023-12-23T00:04:54.306Z,23.75
2023-12-23T00:07:24.609Z,26.50
2023-12-23T00:09:54.778Z,26.25
2023-12-23T00:12:24.918Z,27.00
2023-12-23T00:14:55.298Z,25.00
2023-12-23T00:17:25.638Z,23.75
2023-12-23T00:19:56.225Z,23.25
2023-12-23T00:22:26.544Z,24.50
2023-12-23T00:24:56.641Z,29.00
2023-12-23T00:27:27.151Z,28.75
2023-12-23T00:29:57.240Z,27.75
2023-12-23T00:32:27.556Z,32.75
2023-12-23T00:34:57.736Z,25.50
2023-12-23T00:37:27.941Z,28.25
2023-12-23T00:39:58.344Z,25.00
2023-12-23T00:42:28.456Z,25.25
2023-12-23T00:44:58.593Z,26.00
2023-12-23T00:47:33.445Z,32.25
2023-12-23T00:50:00.695Z,30.50
2023-12-23T00:52:31.217Z,30.00
2023-12-23T00:55:01.421Z,33.00
2023-12-23T00:57:31.792Z,35.75
2023-12-23T01:00:02.128Z,28.75
2023-12-23T01:02:32.640Z,38.00
2023-12-23T01:05:03.354Z,35.75
2023-12-23T01:07:33.763Z,39.50
2023-12-23T01:10:04.064Z,39.25
2023-12-23T01:12:34.451Z,39.25
2023-12-23T01:15:05.114Z,41.50
2023-12-23T01:17:35.480Z,28.00
2023-12-23T01:20:06.555Z,31.00
2023-12-23T01:22:36.952Z,30.50
2023-12-23T01:25:07.221Z,33.00
2023-12-23T01:27:37.312Z,21.25
2023-12-23T01:30:08.390Z,30.00
2023-12-23T01:32:38.991Z,24.75
2023-12-23T01:35:09.483Z,26.50
2023-12-23T01:37:39.719Z,25.25
2023-12-23T01:40:10.748Z,27.25
2023-12-23T01:42:40.950Z,17.75
2023-12-23T01:45:11.415Z,21.75
2023-12-23T01:47:45.720Z,16.00
2023-12-23T01:50:17.662Z,10.75
2023-12-23T01:52:47.966Z,6.75
2023-12-23T01:55:18.878Z,6.50
2023-12-23T01:57:49.451Z,9.50
2023-12-23T02:00:19.883Z,7.25
2023-12-23T02:02:50.450Z,7.00
2023-12-23T02:05:21.026Z,8.50
2023-12-23T02:07:51.357Z,9.50
2023-12-23T02:10:22.681Z,7.25
2023-12-23T02:13:13.676Z,6.00
2023-12-23T02:15:46.665Z,5.25
2023-12-23T02:18:17.077Z,5.50
2023-12-23T02:20:53.710Z,6.00
2023-12-23T02:23:24.693Z,6.75
2023-12-23T02:25:57.832Z,5.75
2023-12-23T02:28:27.906Z,6.00
2023-12-23T02:30:58.701Z,5.00
2023-12-23T02:33:29.438Z,6.00
2023-12-23T02:35:59.596Z,8.50
2023-12-23T02:38:29.807Z,7.25
2023-12-23T02:40:59.991Z,11.25
2023-12-23T02:43:30.280Z,9.00
2023-12-23T02:46:00.369Z,5.25
2023-12-23T02:48:30.603Z,6.75
2023-12-23T02:51:00.769Z,10.25
2023-12-23T02:53:31.110Z,7.75
2023-12-23T02:56:01.432Z,8.25
2023-12-23T02:58:31.947Z,12.50
2023-12-23T03:01:03.820Z,10.00
2023-12-23T03:03:34.448Z,9.00
2023-12-23T03:06:04.829Z,10.00
2023-12-23T03:08:35.090Z,10.50
2023-12-23T03:11:05.389Z,9.75
2023-12-23T03:13:35.739Z,9.00
2023-12-23T03:16:16.928Z,12.00
2023-12-23T03:18:47.514Z,10.00
2023-12-23T03:21:17.647Z,2.50
2023-12-23T03:23:47.766Z,11.50
2023-12-23T03:26:18.183Z,9.00
2023-12-23T03:28:48.469Z,9.33
2023-12-23T03:31:18.750Z,7.50
2023-12-23T03:33:49.086Z,8.00
2023-12-23T03:36:19.444Z,10.50
2023-12-23T03:38:49.535Z,6.00
2023-12-23T03:41:19.752Z,9.75
2023-12-23T03:43:49.813Z,9.75
2023-12-23T03:46:21.560Z,10.50
2023-12-23T03:48:51.682Z,9.25
2023-12-23T03:51:21.722Z,10.50
2023-12-23T03:53:51.809Z,7.50
2023-12-23T03:56:21.947Z,9.00
2023-12-23T03:58:52.154Z,5.75
2023-12-23T04:01:22.287Z,5.00
2023-12-23T04:03:52.440Z,12.00
2023-12-23T04:06:22.729Z,5.50
2023-12-23T04:08:52.757Z,5.50
2023-12-23T04:11:23.001Z,10.00
2023-12-23T04:13:53.337Z,8.00
2023-12-23T04:16:23.560Z,6.00
2023-12-23T04:18:53.923Z,4.50
2023-12-23T04:21:23.991Z,4.25
2023-12-23T04:23:54.092Z,5.00
2023-12-23T04:26:24.347Z,7.50
2023-12-23T04:28:54.483Z,6.50
2023-12-23T04:31:24.630Z,6.50
2023-12-23T04:33:54.865Z,5.50
2023-12-23T04:36:25.125Z,5.75
2023-12-23T04:38:55.231Z,5.75
2023-12-23T04:41:25.537Z,5.25
2023-12-23T04:43:55.863Z,5.00
2023-12-23T04:46:26.570Z,4.50
2023-12-23T04:48:56.897Z,6.00
2023-12-23T04:51:26.982Z,4.00
2023-12-23T04:53:57.292Z,5.50
2023-12-23T04:56:27.658Z,5.00
2023-12-23T04:58:57.836Z,6.00
2023-12-23T05:01:27.888Z,1.00
2023-12-23T05:03:58.215Z,4.50
2023-12-23T05:06:28.637Z,2.50
2023-12-23T05:08:58.883Z,1.75
2023-12-23T05:11:29.210Z,2.00
2023-12-23T05:13:59.292Z,1.75
2023-12-23T05:16:30.030Z,2.50
2023-12-23T05:19:03.734Z,5.25
2023-12-23T05:21:33.946Z,1.00
2023-12-23T05:24:04.681Z,3.50
2023-12-23T05:26:35.075Z,4.75
2023-12-23T05:29:05.934Z,4.00
2023-12-23T05:31:36.202Z,4.00
2023-12-23T05:34:06.259Z,4.00
2023-12-23T05:36:51.306Z,3.50
2023-12-23T05:39:19.565Z,4.00
2023-12-23T05:41:49.710Z,0.75
2023-12-23T05:44:25.113Z,0.50
2023-12-23T05:46:55.584Z,3.00
2023-12-23T05:49:25.837Z,4.00
2023-12-23T05:51:55.940Z,1.25
2023-12-23T05:54:26.012Z,1.00
2023-12-23T05:56:56.125Z,0.50
2023-12-23T05:59:31.446Z,2.50
2023-12-23T06:02:04.853Z,2.50
2023-12-23T06:04:35.198Z,4.75
2023-12-23T06:07:05.493Z,39.00
2023-12-23T06:09:36.056Z,5.00
2023-12-23T06:12:06.581Z,2.00
2023-12-23T06:14:36.853Z,2.00
2023-12-23T06:17:07.045Z,1.00
2023-12-23T06:19:37.177Z,5.00
2023-12-23T06:22:07.318Z,6.50
2023-12-23T06:24:37.506Z,4.25
2023-12-23T06:27:07.674Z,4.50
2023-12-23T06:29:39.849Z,4.00
2023-12-23T06:32:10.083Z,3.00
2023-12-23T06:34:40.240Z,4.25
2023-12-23T06:37:10.551Z,5.00
2023-12-23T06:39:40.780Z,7.50
2023-12-23T06:42:11.069Z,5.00
2023-12-23T06:44:41.276Z,6.00
2023-12-23T06:47:12.912Z,4.25
2023-12-23T06:49:43.452Z,8.00
2023-12-23T06:52:15.290Z,9.00
2023-12-23T06:54:46.995Z,10.00
2023-12-23T06:57:17.394Z,4.50
2023-12-23T06:59:52.228Z,5.00
2023-12-23T07:02:22.510Z,9.25
2023-12-23T07:04:52.671Z,8.50
2023-12-23T07:07:22.854Z,9.00
2023-12-23T07:10:04.214Z,6.00
2023-12-23T07:12:27.988Z,7.50
2023-12-23T07:14:58.710Z,9.00
2023-12-23T07:17:38.832Z,9.25
2023-12-23T07:20:29.740Z,11.50
2023-12-23T07:23:00.017Z,13.00
2023-12-23T07:25:30.206Z,12.75
2023-12-23T07:28:00.307Z,10.00
2023-12-23T07:30:36.179Z,10.00
2023-12-23T07:33:26.359Z,12.00
2023-12-23T07:35:57.340Z,30.00
2023-12-23T07:38:27.804Z,27.50
2023-12-23T07:41:02.729Z,7.50
2023-12-23T07:43:33.309Z,11.00
2023-12-23T07:46:06.300Z,12.00
2023-12-23T07:48:40.108Z,8.50
2023-12-23T07:51:12.022Z,9.00
2023-12-23T07:53:42.552Z,9.00
2023-12-23T07:56:14.584Z,10.00
2023-12-23T07:58:46.750Z,8.25
2023-12-23T08:01:16.884Z,7.00
2023-12-23T08:03:47.033Z,4.75
2023-12-23T08:06:17.911Z,5.75
2023-12-23T08:08:48.396Z,6.00
2023-12-23T08:11:19.003Z,4.25
2023-12-23T08:13:52.613Z,5.00
2023-12-23T08:16:22.885Z,5.00
2023-12-23T08:18:53.200Z,4.50
2023-12-23T08:21:23.531Z,5.00
2023-12-23T08:23:53.924Z,5.50
2023-12-23T08:26:24.885Z,5.75
2023-12-23T08:28:58.661Z,5.75
2023-12-23T08:31:28.941Z,3.50
2023-12-23T08:33:59.193Z,6.00
2023-12-23T08:36:29.312Z,5.25
2023-12-23T08:39:01.969Z,5.75
2023-12-23T08:41:32.279Z,5.25
2023-12-23T08:44:03.705Z,4.00
2023-12-23T08:46:35.368Z,5.50
2023-12-23T08:49:07.111Z,5.00
2023-12-23T08:51:37.181Z,5.00
2023-12-23T08:54:07.371Z,5.00
2023-12-23T08:56:37.464Z,5.50
2023-12-23T08:59:07.620Z,6.25
2023-12-23T09:01:39.395Z,12.75
2023-12-23T09:04:10.538Z,15.75
2023-12-23T09:06:40.719Z,10.75
2023-12-23T09:09:11.020Z,20.00
2023-12-23T09:11:45.528Z,18.00
2023-12-23T09:14:18.332Z,34.75
2023-12-23T09:16:48.602Z,36.25
2023-12-23T09:19:24.311Z,33.25
2023-12-23T09:21:56.807Z,48.80
2023-12-23T09:24:26.873Z,29.75
2023-12-23T09:26:57.096Z,13.20
2023-12-23T09:29:27.498Z,6.25
2023-12-23T09:31:57.620Z,18.50
2023-12-23T09:34:27.726Z,2.25
2023-12-23T09:36:58.352Z,6.00
2023-12-23T09:39:28.478Z,4.50
2023-12-23T09:42:00.987Z,1.00
2023-12-23T09:44:52.227Z,3.50
2023-12-23T09:47:22.992Z,5.00
2023-12-23T09:49:53.558Z,4.75
2023-12-23T09:52:24.253Z,3.00
2023-12-23T09:54:56.730Z,3.00
2023-12-23T09:57:28.123Z,3.00
2023-12-23T10:00:01.609Z,3.50
2023-12-23T10:02:47.588Z,3.00
2023-12-23T10:05:19.143Z,4.50
2023-12-23T10:07:49.691Z,2.75
2023-12-23T10:10:19.803Z,3.00
2023-12-23T10:13:00.202Z,2.00
2023-12-23T10:15:31.807Z,4.50
2023-12-23T10:18:08.496Z,5.00
2023-12-23T10:20:41.973Z,6.00
2023-12-23T10:23:12.936Z,5.00
2023-12-23T10:26:06.571Z,3.00
2023-12-23T10:28:41.407Z,5.00
2023-12-23T10:31:14.243Z,6.00
2023-12-23T10:33:47.406Z,3.50
2023-12-23T10:36:19.938Z,6.25
2023-12-23T10:38:53.291Z,5.00
2023-12-23T10:41:45.622Z,7.25
2023-12-23T10:44:17.684Z,6.50
2023-12-23T10:46:51.387Z,5.00
2023-12-23T10:49:24.619Z,6.50
2023-12-23T10:51:56.446Z,2.25
2023-12-23T10:54:27.488Z,13.25
2023-12-23T10:56:59.344Z,20.00
2023-12-23T10:59:35.240Z,16.00
2023-12-23T11:02:19.373Z,7.75
2023-12-23T11:04:54.874Z,10.50
2023-12-23T11:07:28.058Z,6.00
2023-12-23T11:10:00.881Z,9.00
2023-12-23T11:12:35.723Z,11.75
2023-12-23T11:15:10.775Z,9.25
2023-12-23T11:17:45.936Z,18.00
2023-12-23T11:20:36.923Z,12.00
2023-12-23T11:23:27.183Z,10.75
2023-12-23T11:26:00.119Z,10.00
2023-12-23T11:28:32.370Z,12.00
2023-12-23T11:31:04.046Z,9.75
2023-12-23T11:33:35.848Z,19.50
2023-12-23T11:36:07.014Z,11.25
2023-12-23T11:38:48.510Z,10.00
2023-12-23T11:41:25.905Z,5.75
2023-12-23T11:43:58.618Z,10.00
2023-12-23T11:46:30.446Z,5.25
2023-12-23T11:49:02.381Z,5.00
2023-12-23T11:51:34.230Z,6.00
2023-12-23T11:54:06.747Z,3.25
2023-12-23T11:56:39.994Z,5.00
2023-12-23T11:59:13.107Z,5.00
2023-12-23T12:01:43.215Z,6.00
2023-12-23T12:04:24.172Z,7.25
2023-12-23T12:06:55.018Z,9.00
2023-12-23T12:09:25.734Z,8.50
2023-12-23T12:12:22.036Z,8.75
2023-12-23T12:14:52.172Z,10.00
2023-12-23T12:17:22.451Z,10.00
2023-12-23T12:19:54.430Z,6.00
2023-12-23T12:22:28.928Z,7.25
2023-12-23T12:24:59.417Z,9.75
2023-12-23T12:27:40.365Z,11.25
2023-12-23T12:30:11.926Z,10.25
2023-12-23T12:32:53.538Z,11.50
2023-12-23T12:35:24.183Z,7.00
2023-12-23T12:37:54.564Z,9.25
2023-12-23T12:40:25.335Z,8.50
2023-12-23T12:42:57.645Z,8.25
2023-12-23T12:45:28.258Z,11.75
2023-12-23T12:47:58.956Z,12.50
2023-12-23T12:50:29.387Z,9.75
2023-12-23T12:53:01.270Z,12.75
2023-12-23T12:55:32.214Z,9.75
2023-12-23T12:58:05.096Z,10.50
2023-12-23T13:00:37.124Z,11.25
2023-12-23T13:03:07.996Z,9.75
2023-12-23T13:05:38.170Z,10.00
2023-12-23T13:08:09.984Z,9.00
2023-12-23T13:10:40.204Z,7.00
2023-12-23T13:13:15.317Z,26.75
2023-12-23T13:15:53.910Z,11.50
2023-12-23T13:18:25.653Z,6.25
2023-12-23T13:23:57.561Z,9.50
2023-12-23T13:26:31.952Z,9.25
2023-12-23T13:31:43.749Z,22.75
2023-12-23T13:37:45.749Z,13.00
2023-12-23T13:40:20.603Z,9.25
2023-12-23T13:42:50.857Z,7.25
2023-12-23T13:45:22.863Z,12.00
2023-12-23T13:47:55.173Z,11.00
2023-12-23T13:50:27.718Z,12.25
2023-12-23T13:52:58.211Z,15.25
2023-12-23T13:55:28.779Z,13.25
2023-12-23T13:57:59.186Z,14.25
2023-12-23T14:04:32.146Z,12.00
2023-12-23T14:07:01.241Z,17.00
2023-12-23T14:09:34.261Z,14.00
2023-12-23T14:12:06.059Z,22.00
2023-12-23T14:14:39.340Z,12.75
2023-12-23T14:17:09.712Z,9.50
2023-12-23T14:19:40.434Z,11.25
2023-12-23T14:22:11.251Z,12.50
2023-12-23T14:24:46.702Z,16.00
2023-12-23T14:27:17.006Z,6.00
2023-12-23T14:29:47.417Z,11.50
2023-12-23T14:32:20.366Z,12.25
2023-12-23T14:34:54.510Z,17.75
2023-12-23T14:37:27.682Z,16.50
2023-12-23T14:40:14.695Z,13.25
2023-12-23T14:43:06.010Z,20.25
2023-12-23T14:45:36.136Z,20.25
2023-12-23T14:48:09.175Z,18.50
2023-12-23T14:50:42.324Z,20.75
2023-12-23T14:53:12.218Z,17.25
2023-12-23T14:55:59.093Z,16.75
2023-12-23T14:58:51.931Z,1.00
2023-12-23T15:01:27.788Z,17.00
2023-12-23T15:03:59.536Z,18.50
2023-12-23T15:06:30.778Z,17.00
2023-12-23T15:09:04.776Z,17.50
2023-12-23T15:11:35.244Z,18.50
2023-12-23T15:14:08.300Z,17.00
2023-12-23T15:16:38.983Z,19.75
2023-12-23T15:19:14.321Z,18.00
2023-12-23T15:21:45.657Z,16.50
2023-12-23T15:24:22.163Z,19.25
2023-12-23T15:26:57.114Z,6.00
2023-12-23T15:29:30.983Z,20.50
2023-12-23T15:32:02.904Z,17.75
2023-12-23T15:35:49.641Z,18.00
2023-12-23T15:43:40.578Z,31.50
2023-12-23T15:46:26.780Z,14.25
2023-12-23T15:49:03.280Z,8.50
2023-12-23T15:51:32.101Z,14.00
2023-12-23T15:54:05.330Z,9.00
2023-12-23T15:56:41.947Z,20.25
2023-12-23T15:59:15.503Z,16.50
2023-12-23T16:05:02.921Z,16.25
2023-12-23T16:10:12.940Z,11.50
2023-12-23T16:12:43.380Z,16.00
2023-12-23T16:15:33.913Z,15.50
2023-12-23T16:18:07.246Z,13.50
2023-12-23T16:20:49.401Z,10.50
2023-12-23T16:23:22.187Z,10.50
2023-12-23T16:25:55.748Z,12.75
2023-12-23T16:28:28.447Z,12.25
2023-12-23T16:31:05.927Z,10.00
2023-12-23T16:36:24.493Z,14.25
2023-12-23T16:38:55.712Z,6.25
2023-12-23T16:42:53.460Z,11.75
2023-12-23T16:44:29.938Z,9.25
2023-12-23T16:47:03.980Z,8.75
2023-12-23T16:49:41.376Z,10.00
2023-12-23T16:52:11.496Z,7.75
2023-12-23T16:54:44.841Z,8.75
2023-12-23T16:57:20.442Z,9.00
2023-12-23T16:59:50.800Z,10.00
2023-12-23T17:02:23.390Z,9.00
2023-12-23T17:04:55.204Z,7.75
2023-12-23T17:07:26.789Z,9.75
2023-12-23T17:09:56.904Z,9.50
2023-12-23T17:12:27.199Z,9.50
2023-12-23T17:14:57.581Z,8.25
2023-12-23T17:17:27.973Z,5.25
2023-12-23T17:20:00.685Z,5.25
2023-12-23T17:22:32.500Z,5.75
2023-12-23T17:25:03.054Z,6.00
2023-12-23T17:27:37.058Z,5.50
2023-12-23T17:30:14.284Z,8.00
2023-12-23T17:33:01.030Z,5.75
2023-12-23T17:35:36.709Z,5.25
2023-12-23T17:38:05.242Z,6.50
2023-12-23T17:40:35.538Z,6.00
2023-12-23T17:43:07.138Z,5.50
2023-12-23T17:45:42.028Z,5.00
2023-12-23T17:48:15.006Z,6.00
2023-12-23T17:50:46.637Z,8.75
2023-12-23T17:53:26.123Z,6.00
2023-12-23T17:55:58.625Z,4.50
2023-12-23T17:58:33.691Z,5.00
2023-12-23T18:01:13.564Z,8.00
2023-12-23T18:03:44.518Z,8.50
2023-12-23T18:06:31.180Z,4.75
2023-12-23T18:08:51.902Z,8.00
2023-12-23T18:12:34.959Z,2.00
2023-12-23T18:14:03.974Z,7.00
2023-12-23T18:17:02.767Z,8.00
2023-12-23T18:19:19.432Z,10.00
2023-12-23T18:25:16.454Z,6.75
2023-12-23T18:27:51.769Z,9.75
2023-12-23T18:30:21.056Z,7.75
2023-12-23T18:33:47.884Z,9.00
2023-12-23T18:35:27.138Z,10.25
2023-12-23T18:38:04.992Z,13.00
2023-12-23T18:40:32.291Z,9.00
2023-12-23T18:43:04.224Z,13.25
2023-12-23T18:45:34.503Z,8.75
2023-12-23T18:48:09.690Z,0.00
2023-12-23T18:50:46.260Z,9.00
2023-12-23T18:56:09.863Z,9.75
2023-12-23T18:58:53.356Z,12.50
2023-12-23T19:01:38.707Z,9.75
2023-12-23T19:03:54.856Z,8.00
2023-12-23T19:06:26.446Z,8.50
2023-12-23T19:08:58.525Z,9.00
2023-12-23T19:11:58.229Z,10.50
2023-12-23T19:19:46.538Z,10.00
2023-12-23T19:22:51.402Z,8.00
2023-12-23T19:38:26.281Z,10.00
2023-12-23T19:40:54.280Z,7.25
2023-12-23T19:43:24.824Z,13.75
2023-12-23T19:45:59.929Z,8.00
2023-12-23T19:48:32.756Z,5.25
2023-12-23T19:52:02.998Z,5.50
2023-12-23T19:53:55.645Z,9.25
2023-12-23T19:56:44.065Z,8.50
2023-12-23T19:59:20.508Z,9.75
2023-12-23T20:01:58.212Z,9.75
2023-12-23T20:04:29.932Z,8.25
2023-12-23T20:07:12.397Z,8.75
2023-12-23T20:09:38.318Z,8.25
2023-12-23T20:12:11.520Z,8.25
2023-12-23T20:15:08.455Z,9.50
2023-12-23T20:17:57.128Z,9.00
2023-12-23T20:20:41.151Z,6.00
2023-12-23T20:23:15.702Z,8.50
2023-12-23T20:25:46.701Z,8.50
2023-12-23T20:28:19.841Z,6.00
2023-12-23T20:31:02.491Z,7.50
2023-12-23T20:33:34.750Z,6.50
2023-12-23T20:36:06.051Z,8.00
2023-12-23T20:38:36.951Z,8.75
2023-12-23T20:41:15.914Z,6.50
2023-12-23T20:44:00.419Z,9.50
2023-12-23T20:46:36.278Z,10.00
2023-12-23T20:49:10.951Z,8.00
2023-12-23T20:51:46.865Z,8.75
2023-12-23T20:54:21.445Z,7.00
2023-12-23T20:56:53.374Z,5.00
2023-12-23T20:59:34.076Z,5.50
2023-12-23T21:02:09.086Z,8.25
2023-12-23T21:04:41.938Z,8.25
2023-12-23T21:07:12.584Z,8.25
2023-12-23T21:09:42.970Z,8.00
2023-12-23T21:12:16.228Z,9.75
2023-12-23T21:14:52.334Z,3.50
2023-12-23T21:17:24.915Z,4.75
2023-12-23T21:19:56.834Z,6.00
2023-12-23T21:22:32.449Z,8.75
2023-12-23T21:27:48.283Z,8.75
2023-12-23T21:30:20.069Z,6.50
2023-12-23T21:33:00.636Z,4.75
2023-12-23T21:35:35.308Z,7.00
2023-12-23T21:38:07.217Z,8.00
2023-12-23T21:40:47.456Z,5.00
2023-12-23T21:43:27.126Z,8.00
2023-12-23T21:45:59.975Z,6.00
2023-12-23T21:48:30.544Z,7.00
2023-12-23T21:51:06.067Z,5.75
2023-12-23T21:53:37.785Z,4.00
2023-12-23T21:56:09.686Z,8.75
2023-12-23T21:58:48.619Z,8.00
2023-12-23T22:01:18.734Z,8.00
2023-12-23T22:03:48.932Z,10.00
2023-12-23T22:06:19.341Z,9.50
2023-12-23T22:08:50.992Z,7.75
2023-12-23T22:11:29.657Z,11.00
2023-12-23T22:14:01.426Z,8.50
2023-12-23T22:16:33.563Z,11.25
2023-12-23T22:19:07.034Z,10.00
2023-12-23T22:21:37.180Z,10.25
2023-12-23T22:24:09.132Z,12.75
2023-12-23T22:26:39.652Z,11.00
2023-12-23T22:29:09.803Z,10.75
2023-12-23T22:31:42.618Z,11.50
2023-12-23T22:34:14.901Z,10.25
2023-12-23T22:36:45.456Z,10.50
2023-12-23T22:39:15.756Z,11.50
2023-12-23T22:41:45.905Z,17.00
2023-12-23T22:44:16.174Z,17.75
2023-12-23T22:46:46.327Z,12.75
2023-12-23T22:49:16.811Z,17.75
2023-12-23T22:51:47.074Z,15.25
2023-12-23T22:54:17.268Z,8.50
2023-12-23T22:56:47.409Z,8.50
2023-12-23T22:59:17.661Z,9.25
2023-12-23T23:01:47.779Z,12.25
2023-12-23T23:04:17.972Z,12.00
2023-12-23T23:06:48.637Z,17.50
2023-12-23T23:09:20.077Z,7.00
2023-12-23T23:11:51.915Z,13.00
2023-12-23T23:14:22.280Z,9.75
2023-12-23T23:16:52.528Z,13.75
2023-12-23T23:19:23.011Z,17.00
2023-12-23T23:21:53.259Z,12.50
2023-12-23T23:24:24.154Z,18.00
2023-12-23T23:26:54.352Z,23.00
2023-12-23T23:29:24.745Z,15.25
2023-12-23T23:31:55.247Z,15.75
2023-12-23T23:34:25.378Z,11.75
2023-12-23T23:36:55.505Z,3.50
2023-12-23T23:39:25.583Z,10.75
2023-12-23T23:41:55.610Z,12.75
2023-12-23T23:44:25.805Z,14.75
2023-12-23T23:46:57.756Z,11.50
2023-12-23T23:49:27.842Z,6.75
2023-12-23T23:51:57.993Z,12.00
2023-12-23T23:54:28.102Z,25.50
2023-12-23T23:56:58.256Z,15.75
2023-12-23T23:59:28.594Z,26.50
